Time;durP1;ratioP1;P1;durP2;ratioP2;P2;SDS_P1;SDS_P2;PMS_P1;PMS_P2;Temp;Humidity;BMP_temperature;BMP_pressure;BME280_temperature;BME280_humidity;BME280_pressure;Samples;Min_cycle;Max_cycle;Signal;HPM_P1;HPM_P2
2023/08/09 00:02:04;;;;;;;8.32;3.72;;;;;;;;;;6120611;23;20013;-44
2023/08/09 00:04:31;;;;;;;7.38;3.65;;;;;;;;;;6151858;23;20022;-45
2023/08/09 00:06:59;;;;;;;7.82;3.53;;;;;;;;;;6124961;23;20014;-43
2023/08/09 00:09:27;;;;;;;7.43;4.03;;;;;;;;;;6118899;23;20025;-42
2023/08/09 00:11:55;;;;;;;7.97;3.95;;;;;;;;;;6125880;23;20630;-45
2023/08/09 00:14:23;;;;;;;8.45;4.18;;;;;;;;;;6127758;23;20013;-43
2023/08/09 00:16:53;;;;;;;9.57;3.97;;;;;;;;;;6117558;23;20029;-46
2023/08/09 00:19:21;;;;;;;9.30;4.63;;;;;;;;;;6125410;23;20018;-43
2023/08/09 00:21:48;;;;;;;11.03;4.60;;;;;;;;;;6115245;23;20045;-42
2023/08/09 00:24:16;;;;;;;9.45;4.32;;;;;;;;;;6130145;23;20025;-45
2023/08/09 00:26:44;;;;;;;10.57;4.60;;;;;;;;;;6120249;23;20021;-43
2023/08/09 00:29:12;;;;;;;9.50;4.57;;;;;;;;;;6130836;23;20021;-47
2023/08/09 00:31:40;;;;;;;13.23;5.28;;;;;;;;;;6116234;23;20088;-44
2023/08/09 00:34:10;;;;;;;11.63;4.30;;;;;;;;;;6130598;23;20078;-43
2023/08/09 00:36:38;;;;;;;11.13;5.00;;;;;;;;;;6117007;23;20013;-43
2023/08/09 00:39:06;;;;;;;8.50;4.18;;;;;;;;;;6123842;23;20087;-43
2023/08/09 00:41:34;;;;;;;8.38;4.57;;;;;;;;;;6129705;23;20051;-43
2023/08/09 00:44:02;;;;;;;8.43;4.70;;;;;;;;;;6110964;23;20021;-43
2023/08/09 00:46:30;;;;;;;9.40;4.10;;;;;;;;;;6121569;23;20014;-44
2023/08/09 00:48:57;;;;;;;9.30;3.75;;;;;;;;;;6118305;23;20345;-44
2023/08/09 00:51:26;;;;;;;10.10;4.20;;;;;;;;;;6120994;23;20084;-43
2023/08/09 00:53:54;;;;;;;9.50;4.03;;;;;;;;;;6115564;23;20073;-43
2023/08/09 00:56:22;;;;;;;16.55;4.30;;;;;;;;;;6123776;23;20013;-48
2023/08/09 00:58:50;;;;;;;16.70;5.57;;;;;;;;;;6124227;23;20479;-42
2023/08/09 01:01:17;;;;;;;14.00;5.35;;;;;;;;;;6122735;23;20031;-43
2023/08/09 01:03:46;;;;;;;23.10;5.07;;;;;;;;;;6121854;23;20017;-43
2023/08/09 01:06:18;;;;;;;21.08;5.25;;;;;;;;;;6124342;23;20660;-43
2023/08/09 01:08:50;;;;;;;24.67;4.97;;;;;;;;;;6122497;23;20359;-43
2023/08/09 01:11:24;;;;;;;49.00;6.23;;;;;;;;;;6124626;23;20021;-42
2023/08/09 01:13:54;;;;;;;29.88;5.75;;;;;;;;;;6123833;23;20025;-43
2023/08/09 01:16:24;;;;;;;25.55;5.68;;;;;;;;;;6129056;23;20017;-43
2023/08/09 01:18:53;;;;;;;56.08;6.90;;;;;;;;;;6124873;23;20025;-43
2023/08/09 01:21:22;;;;;;;53.22;6.30;;;;;;;;;;6124192;23;20021;-46
2023/08/09 01:23:52;;;;;;;66.50;7.53;;;;;;;;;;6117553;23;20033;-46
2023/08/09 01:26:19;;;;;;;84.78;8.07;;;;;;;;;;6113702;23;20025;-45
2023/08/09 01:28:48;;;;;;;61.83;7.18;;;;;;;;;;6130341;23;20013;-45
2023/08/09 01:31:20;;;;;;;81.65;7.90;;;;;;;;;;6115572;23;20021;-44
2023/08/09 01:33:48;;;;;;;46.80;6.93;;;;;;;;;;6126070;23;20017;-44
2023/08/09 01:36:19;;;;;;;54.83;6.57;;;;;;;;;;6120398;23;20018;-43
2023/08/09 01:38:50;;;;;;;22.48;5.55;;;;;;;;;;6117055;23;20435;-44
2023/08/09 01:41:19;;;;;;;18.85;5.75;;;;;;;;;;6118456;23;20452;-44
2023/08/09 01:43:47;;;;;;;16.98;6.25;;;;;;;;;;6120848;23;20013;-45
2023/08/09 01:46:18;;;;;;;16.27;5.97;;;;;;;;;;6118829;23;20044;-43
2023/08/09 01:48:46;;;;;;;15.53;5.40;;;;;;;;;;6131527;23;20049;-42
2023/08/09 01:51:14;;;;;;;13.13;5.32;;;;;;;;;;6122981;23;20014;-43
2023/08/09 01:53:43;;;;;;;13.30;5.20;;;;;;;;;;6134309;23;20017;-43
2023/08/09 01:56:13;;;;;;;13.35;5.25;;;;;;;;;;6094541;23;20076;-44
2023/08/09 01:58:42;;;;;;;13.10;4.97;;;;;;;;;;6124827;23;20025;-43
2023/08/09 02:01:10;;;;;;;12.73;5.13;;;;;;;;;;6136440;23;20017;-45
2023/08/09 02:03:39;;;;;;;11.70;4.85;;;;;;;;;;6126689;23;20017;-43
2023/08/09 02:06:10;;;;;;;13.77;5.40;;;;;;;;;;6133956;23;20060;-44
2023/08/09 02:08:43;;;;;;;11.15;4.97;;;;;;;;;;6126809;23;20064;-43
2023/08/09 02:11:11;;;;;;;14.45;5.35;;;;;;;;;;6130959;23;20022;-45
2023/08/09 02:13:39;;;;;;;13.47;4.87;;;;;;;;;;6126579;23;20021;-43
2023/08/09 02:16:09;;;;;;;12.57;5.13;;;;;;;;;;6137488;23;20018;-43
2023/08/09 02:18:39;;;;;;;11.90;4.63;;;;;;;;;;6139949;23;20017;-42
2023/08/09 02:21:06;;;;;;;11.35;4.80;;;;;;;;;;6129345;23;20020;-42
2023/08/09 02:23:35;;;;;;;12.80;4.88;;;;;;;;;;6129628;23;20018;-44
2023/08/09 02:26:02;;;;;;;11.13;4.90;;;;;;;;;;6132608;23;20083;-43
2023/08/09 02:28:30;;;;;;;9.75;4.45;;;;;;;;;;6105745;23;20504;-43
2023/08/09 02:30:58;;;;;;;9.32;3.92;;;;;;;;;;6155368;23;20025;-43
2023/08/09 02:33:28;;;;;;;10.98;4.97;;;;;;;;;;6135059;23;20017;-43
2023/08/09 02:35:56;;;;;;;11.27;4.97;;;;;;;;;;6137461;23;20017;-42
2023/08/09 02:38:25;;;;;;;10.43;4.33;;;;;;;;;;6125067;23;20017;-45
2023/08/09 02:40:53;;;;;;;11.35;4.88;;;;;;;;;;6135945;23;20022;-43
2023/08/09 02:43:23;;;;;;;12.85;5.40;;;;;;;;;;6125336;23;20017;-44
2023/08/09 02:45:52;;;;;;;10.73;4.85;;;;;;;;;;6133741;23;20077;-42
2023/08/09 02:48:20;;;;;;;11.85;5.68;;;;;;;;;;6128117;23;20021;-43
2023/08/09 02:50:49;;;;;;;12.43;5.20;;;;;;;;;;6127523;23;20014;-43
2023/08/09 02:53:17;;;;;;;17.20;5.38;;;;;;;;;;6120509;23;20018;-43
2023/08/09 02:55:45;;;;;;;16.83;5.25;;;;;;;;;;6131140;23;20258;-43
2023/08/09 02:58:13;;;;;;;13.57;5.25;;;;;;;;;;6127594;23;20054;-43
2023/08/09 03:00:41;;;;;;;17.42;5.25;;;;;;;;;;6127416;23;20018;-42
2023/08/09 03:03:09;;;;;;;15.03;4.93;;;;;;;;;;6127566;23;20204;-43
2023/08/09 03:05:42;;;;;;;26.02;5.28;;;;;;;;;;6132630;23;20415;-44
2023/08/09 03:08:12;;;;;;;15.57;4.75;;;;;;;;;;6128101;23;20076;-43
2023/08/09 03:10:40;;;;;;;15.10;4.65;;;;;;;;;;6128574;23;20018;-44
2023/08/09 03:13:08;;;;;;;23.52;4.78;;;;;;;;;;6153419;23;20471;-45
2023/08/09 03:15:36;;;;;;;60.97;5.30;;;;;;;;;;6123739;23;20066;-43
2023/08/09 03:18:04;;;;;;;58.58;5.38;;;;;;;;;;6133984;23;20028;-46
2023/08/09 03:20:33;;;;;;;55.53;4.20;;;;;;;;;;6143012;23;20043;-43
2023/08/09 03:23:01;;;;;;;71.90;6.57;;;;;;;;;;6135559;23;20014;-43
2023/08/09 03:25:31;;;;;;;77.95;4.60;;;;;;;;;;6122790;23;20017;-42
2023/08/09 03:27:58;;;;;;;78.33;5.00;;;;;;;;;;6136335;23;20049;-43
2023/08/09 03:30:26;;;;;;;123.15;5.90;;;;;;;;;;6122472;23;20027;-45
2023/08/09 03:33:13;;;;;;;109.78;5.28;;;;;;;;;;6135463;23;20021;-44
2023/08/09 03:35:41;;;;;;;92.32;5.20;;;;;;;;;;6135857;23;20014;-46
2023/08/09 03:38:08;;;;;;;77.20;4.85;;;;;;;;;;6127489;23;20020;-43
2023/08/09 03:40:39;;;;;;;78.63;5.13;;;;;;;;;;6133748;23;20025;-43
2023/08/09 03:43:06;;;;;;;111.43;6.32;;;;;;;;;;6104786;23;20023;-43
2023/08/09 03:45:34;;;;;;;106.82;5.82;;;;;;;;;;6127782;23;20017;-42
2023/08/09 03:48:02;;;;;;;42.50;5.22;;;;;;;;;;6128160;23;20022;-44
2023/08/09 03:50:29;;;;;;;35.72;4.18;;;;;;;;;;6128224;23;20017;-44
2023/08/09 03:52:57;;;;;;;42.20;3.87;;;;;;;;;;6115198;23;20017;-43
2023/08/09 03:55:24;;;;;;;37.00;3.20;;;;;;;;;;6133405;23;20277;-43
2023/08/09 03:57:54;;;;;;;63.97;4.55;;;;;;;;;;6146322;23;20031;-44
2023/08/09 04:00:24;;;;;;;35.03;3.35;;;;;;;;;;6129075;23;20022;-45
2023/08/09 04:02:52;;;;;;;43.67;3.63;;;;;;;;;;6130375;23;20483;-42
2023/08/09 04:05:20;;;;;;;52.37;4.40;;;;;;;;;;6156538;23;20014;-42
2023/08/09 04:07:48;;;;;;;54.60;5.55;;;;;;;;;;6130449;23;20052;-44
2023/08/09 04:10:16;;;;;;;51.30;4.65;;;;;;;;;;6122835;23;20021;-43
2023/08/09 04:12:44;;;;;;;43.78;4.25;;;;;;;;;;6152374;23;20088;-42
2023/08/09 04:15:13;;;;;;;57.92;5.43;;;;;;;;;;6125194;23;20060;-43
2023/08/09 04:17:41;;;;;;;34.27;4.47;;;;;;;;;;6131269;23;20507;-42
2023/08/09 04:20:11;;;;;;;62.72;5.47;;;;;;;;;;6123968;23;20052;-44
2023/08/09 04:22:39;;;;;;;46.83;5.10;;;;;;;;;;6131782;23;20020;-42
2023/08/09 04:25:10;;;;;;;35.83;6.25;;;;;;;;;;6123565;23;20356;-42
2023/08/09 04:27:38;;;;;;;23.02;4.30;;;;;;;;;;6133492;23;20018;-43
2023/08/09 04:30:09;;;;;;;34.80;4.63;;;;;;;;;;6121975;23;20485;-43
2023/08/09 04:32:38;;;;;;;23.38;4.05;;;;;;;;;;6135868;23;20018;-44
2023/08/09 04:35:06;;;;;;;26.05;4.53;;;;;;;;;;6127834;23;20096;-42
2023/08/09 04:37:34;;;;;;;19.17;3.55;;;;;;;;;;6129845;23;20254;-43
2023/08/09 04:40:01;;;;;;;21.92;3.58;;;;;;;;;;6130377;23;20021;-42
2023/08/09 04:42:30;;;;;;;20.33;3.33;;;;;;;;;;6132681;23;20017;-44
2023/08/09 04:45:00;;;;;;;22.38;3.22;;;;;;;;;;6125766;23;20467;-43
2023/08/09 04:47:27;;;;;;;19.30;3.30;;;;;;;;;;6126456;23;20025;-42
2023/08/09 04:49:57;;;;;;;30.20;3.70;;;;;;;;;;6125756;23;20017;-42
2023/08/09 04:52:24;;;;;;;15.70;3.65;;;;;;;;;;6122787;23;20014;-42
2023/08/09 04:54:52;;;;;;;18.60;3.03;;;;;;;;;;6123294;23;20021;-47
2023/08/09 04:57:20;;;;;;;14.73;3.22;;;;;;;;;;6119689;23;20393;-43
2023/08/09 04:59:48;;;;;;;17.65;4.47;;;;;;;;;;6125386;23;20464;-42
2023/08/09 05:02:15;;;;;;;14.95;3.60;;;;;;;;;;6116787;23;20338;-43
2023/08/09 05:04:44;;;;;;;20.27;4.28;;;;;;;;;;6126198;23;20021;-45
2023/08/09 05:07:13;;;;;;;14.97;3.87;;;;;;;;;;6126103;23;20336;-44
2023/08/09 05:09:40;;;;;;;20.95;4.63;;;;;;;;;;6113270;23;20024;-46
2023/08/09 05:12:08;;;;;;;13.95;4.25;;;;;;;;;;6128357;23;20014;-48
2023/08/09 05:14:36;;;;;;;11.20;4.03;;;;;;;;;;6113258;23;20024;-43
2023/08/09 05:17:03;;;;;;;12.15;3.90;;;;;;;;;;6129429;23;20025;-45
2023/08/09 05:19:31;;;;;;;11.17;3.67;;;;;;;;;;6127171;23;20017;-43
2023/08/09 05:21:59;;;;;;;12.70;3.83;;;;;;;;;;6114146;23;20018;-44
2023/08/09 05:24:29;;;;;;;14.98;3.65;;;;;;;;;;6128732;23;20033;-44
2023/08/09 05:26:56;;;;;;;9.60;3.63;;;;;;;;;;6119364;23;20356;-42
2023/08/09 05:29:24;;;;;;;9.63;3.53;;;;;;;;;;6128641;23;20424;-43
2023/08/09 05:31:52;;;;;;;11.33;4.20;;;;;;;;;;6117835;23;20017;-46
2023/08/09 05:34:20;;;;;;;10.23;3.92;;;;;;;;;;6125029;23;20021;-42
2023/08/09 05:36:48;;;;;;;10.60;4.30;;;;;;;;;;6119915;23;20021;-42
2023/08/09 05:39:16;;;;;;;9.10;3.58;;;;;;;;;;6152339;23;20029;-43
2023/08/09 05:41:49;;;;;;;10.10;4.30;;;;;;;;;;6127840;23;20021;-42
2023/08/09 05:44:16;;;;;;;12.00;4.53;;;;;;;;;;6115408;23;20056;-42
2023/08/09 05:46:49;;;;;;;9.57;3.65;;;;;;;;;;6124090;23;20108;-44
2023/08/09 05:49:16;;;;;;;9.70;3.80;;;;;;;;;;6118825;23;20017;-44
2023/08/09 05:51:44;;;;;;;10.43;4.28;;;;;;;;;;6129972;23;20021;-43
2023/08/09 05:54:12;;;;;;;10.90;4.35;;;;;;;;;;6118472;23;20747;-46
2023/08/09 05:56:40;;;;;;;12.73;4.33;;;;;;;;;;6127160;23;20089;-43
2023/08/09 05:59:10;;;;;;;12.27;4.40;;;;;;;;;;6121985;23;20424;-45
2023/08/09 06:01:38;;;;;;;11.70;4.43;;;;;;;;;;6126035;23;20029;-42
2023/08/09 06:04:05;;;;;;;10.45;4.20;;;;;;;;;;6115786;23;20024;-42
2023/08/09 06:06:33;;;;;;;14.18;4.53;;;;;;;;;;6118346;23;20021;-43
2023/08/09 06:09:05;;;;;;;12.07;3.97;;;;;;;;;;6130907;23;20021;-44
2023/08/09 06:11:33;;;;;;;13.38;4.65;;;;;;;;;;6129015;23;20452;-43
2023/08/09 06:14:01;;;;;;;14.70;5.20;;;;;;;;;;6117687;23;20020;-42
2023/08/09 06:16:30;;;;;;;16.30;5.97;;;;;;;;;;6145307;23;20368;-44
2023/08/09 06:18:58;;;;;;;22.67;6.00;;;;;;;;;;6126138;23;20568;-42
2023/08/09 06:21:26;;;;;;;18.50;6.03;;;;;;;;;;6128423;23;20041;-44
2023/08/09 06:23:54;;;;;;;23.95;5.90;;;;;;;;;;6119714;23;20021;-42
2023/08/09 06:26:21;;;;;;;47.92;7.50;;;;;;;;;;6128650;23;20024;-43
2023/08/09 06:28:49;;;;;;;62.15;6.35;;;;;;;;;;6118573;23;20022;-41
2023/08/09 06:31:17;;;;;;;34.35;5.32;;;;;;;;;;6121110;23;20439;-42
2023/08/09 06:33:46;;;;;;;50.77;6.33;;;;;;;;;;6111613;23;20018;-41
2023/08/09 06:36:14;;;;;;;30.60;5.85;;;;;;;;;;6128877;23;20018;-42
2023/08/09 06:38:41;;;;;;;39.88;5.20;;;;;;;;;;6124278;23;20013;-41
2023/08/09 06:41:09;;;;;;;39.88;5.68;;;;;;;;;;6119529;23;20076;-41
2023/08/09 06:43:37;;;;;;;37.22;5.13;;;;;;;;;;6122996;23;20021;-42
2023/08/09 06:46:05;;;;;;;29.13;6.10;;;;;;;;;;6124255;23;20612;-42
2023/08/09 06:48:33;;;;;;;21.80;5.32;;;;;;;;;;6124158;23;20089;-47
2023/08/09 06:51:01;;;;;;;21.08;6.10;;;;;;;;;;6128739;23;20024;-44
2023/08/09 06:53:29;;;;;;;20.90;5.88;;;;;;;;;;6149307;23;20013;-42
2023/08/09 06:55:57;;;;;;;26.50;5.97;;;;;;;;;;6117591;23;20048;-41
2023/08/09 06:58:24;;;;;;;29.60;6.30;;;;;;;;;;6121742;23;20306;-43
2023/08/09 07:00:54;;;;;;;42.97;6.70;;;;;;;;;;6146449;23;20048;-42
2023/08/09 07:03:21;;;;;;;34.17;6.47;;;;;;;;;;6140850;23;20013;-43
2023/08/09 07:05:52;;;;;;;30.50;7.15;;;;;;;;;;6132229;23;20053;-44
2023/08/09 07:08:22;;;;;;;31.42;7.35;;;;;;;;;;6132107;23;20018;-44
2023/08/09 07:10:49;;;;;;;23.93;7.60;;;;;;;;;;6114259;23;20013;-41
2023/08/09 07:13:17;;;;;;;27.75;6.80;;;;;;;;;;6120252;23;20021;-43
2023/08/09 07:15:45;;;;;;;22.50;7.80;;;;;;;;;;6116738;23;20040;-42
2023/08/09 07:18:12;;;;;;;22.73;6.93;;;;;;;;;;6125089;23;20028;-47
2023/08/09 07:20:40;;;;;;;20.83;6.47;;;;;;;;;;6120714;23;20079;-42
2023/08/09 07:23:08;;;;;;;17.93;6.07;;;;;;;;;;6113662;23;20014;-43
2023/08/09 07:25:37;;;;;;;19.60;6.43;;;;;;;;;;6120528;23;20022;-42
2023/08/09 07:28:05;;;;;;;19.58;6.07;;;;;;;;;;6121326;23;20337;-42
2023/08/09 07:30:33;;;;;;;16.73;6.30;;;;;;;;;;6115040;23;20028;-45
2023/08/09 07:33:01;;;;;;;13.70;5.80;;;;;;;;;;6106389;23;20040;-42
2023/08/09 07:35:29;;;;;;;13.93;4.87;;;;;;;;;;6105961;23;20032;-44
2023/08/09 07:37:56;;;;;;;12.15;5.47;;;;;;;;;;6112478;23;20028;-44
2023/08/09 07:40:24;;;;;;;12.98;5.22;;;;;;;;;;6102164;23;20024;-42
2023/08/09 07:42:55;;;;;;;13.10;5.32;;;;;;;;;;6111199;23;20014;-45
2023/08/09 07:45:23;;;;;;;17.83;6.47;;;;;;;;;;6107317;23;20017;-43
2023/08/09 07:47:51;;;;;;;17.63;6.77;;;;;;;;;;6115351;23;20074;-43
2023/08/09 07:50:19;;;;;;;13.48;5.85;;;;;;;;;;6102478;23;20531;-43
2023/08/09 07:52:47;;;;;;;11.60;5.05;;;;;;;;;;6111186;23;20021;-42
2023/08/09 07:55:15;;;;;;;10.20;4.75;;;;;;;;;;6099738;23;20028;-43
2023/08/09 07:57:42;;;;;;;9.18;4.75;;;;;;;;;;6108043;23;20472;-42
2023/08/09 08:00:12;;;;;;;8.17;3.70;;;;;;;;;;6101762;23;20266;-42
2023/08/09 08:02:44;;;;;;;8.68;4.20;;;;;;;;;;6110707;23;20440;-42
2023/08/09 08:05:12;;;;;;;9.35;3.85;;;;;;;;;;6114644;23;20482;-42
2023/08/09 08:07:40;;;;;;;9.50;4.53;;;;;;;;;;6107079;23;20021;-43
2023/08/09 08:10:09;;;;;;;11.98;5.50;;;;;;;;;;6107373;23;20021;-44
2023/08/09 08:12:37;;;;;;;9.43;5.00;;;;;;;;;;6100712;23;20239;-45
2023/08/09 08:15:06;;;;;;;9.88;5.13;;;;;;;;;;6114236;23;20018;-44
2023/08/09 08:17:35;;;;;;;8.07;3.83;;;;;;;;;;6098776;23;20013;-45
2023/08/09 08:20:15;;;;;;;8.30;3.55;;;;;;;;;;6111341;23;20488;-42
2023/08/09 08:22:43;;;;;;;9.10;4.00;;;;;;;;;;6114816;23;20028;-44
2023/08/09 08:25:11;;;;;;;9.27;4.23;;;;;;;;;;6100280;23;20017;-45
2023/08/09 08:27:42;;;;;;;8.30;3.67;;;;;;;;;;6113934;23;20032;-43
2023/08/09 08:30:11;;;;;;;7.28;3.63;;;;;;;;;;6074368;23;20021;-43
2023/08/09 08:32:43;;;;;;;7.65;3.70;;;;;;;;;;6110592;23;20021;-43
2023/08/09 08:35:36;;;;;;;8.98;4.00;;;;;;;;;;6114741;23;20147;-42
2023/08/09 08:38:05;;;;;;;8.57;3.33;;;;;;;;;;6126019;23;20022;-45
2023/08/09 08:40:33;;;;;;;9.20;3.70;;;;;;;;;;6122442;23;20029;-47
2023/08/09 08:43:01;;;;;;;7.03;3.70;;;;;;;;;;6122292;23;20029;-43
2023/08/09 08:45:29;;;;;;;7.90;3.38;;;;;;;;;;6124249;23;20017;-45
2023/08/09 08:48:00;;;;;;;7.15;3.35;;;;;;;;;;6118790;23;20053;-42
2023/08/09 08:50:30;;;;;;;6.00;2.60;;;;;;;;;;6115789;23;20052;-43
2023/08/09 08:52:58;;;;;;;7.15;2.90;;;;;;;;;;6126312;23;20072;-44
2023/08/09 08:55:26;;;;;;;5.82;2.75;;;;;;;;;;6119639;23;20021;-43
2023/08/09 08:57:53;;;;;;;5.50;2.13;;;;;;;;;;6124826;23;20084;-43
2023/08/09 09:00:22;;;;;;;5.70;2.22;;;;;;;;;;6124891;23;20028;-43
2023/08/09 09:02:55;;;;;;;5.90;2.30;;;;;;;;;;6128102;23;20022;-42
2023/08/09 09:05:27;;;;;;;6.03;1.58;;;;;;;;;;6126751;23;20068;-44
2023/08/09 09:07:56;;;;;;;5.38;1.45;;;;;;;;;;6122776;23;20028;-42
2023/08/09 09:10:26;;;;;;;4.10;1.40;;;;;;;;;;6128732;23;20017;-44
2023/08/09 09:12:55;;;;;;;4.03;1.10;;;;;;;;;;6124310;23;20014;-43
2023/08/09 09:15:23;;;;;;;4.33;1.20;;;;;;;;;;6127656;23;20586;-42
2023/08/09 09:17:51;;;;;;;4.80;1.30;;;;;;;;;;6125170;23;20024;-43
2023/08/09 09:20:23;;;;;;;4.07;1.25;;;;;;;;;;6142706;23;20017;-46
2023/08/09 09:23:25;;;;;;;4.57;0.70;;;;;;;;;;6130499;23;20453;-45
2023/08/09 09:26:01;;;;;;;4.28;1.52;;;;;;;;;;6131834;23;20459;-43
2023/08/09 09:28:29;;;;;;;4.87;1.23;;;;;;;;;;6118580;23;20372;-44
2023/08/09 09:30:57;;;;;;;4.90;2.08;;;;;;;;;;6125322;23;20353;-44
2023/08/09 09:33:32;;;;;;;4.20;1.83;;;;;;;;;;6119413;23;20014;-44
2023/08/09 09:36:00;;;;;;;4.60;1.58;;;;;;;;;;6127269;23;20020;-45
2023/08/09 09:38:30;;;;;;;5.38;1.75;;;;;;;;;;6144148;23;20018;-44
2023/08/09 09:40:57;;;;;;;4.50;1.30;;;;;;;;;;6122524;23;20024;-43
2023/08/09 09:43:25;;;;;;;5.70;1.58;;;;;;;;;;6113722;23;20229;-45
2023/08/09 09:45:56;;;;;;;6.00;1.92;;;;;;;;;;6127582;23;20013;-44
2023/08/09 09:48:25;;;;;;;4.22;1.45;;;;;;;;;;6124849;23;20448;-42
2023/08/09 09:50:53;;;;;;;3.88;1.30;;;;;;;;;;6126993;23;20033;-43
2023/08/09 09:53:21;;;;;;;3.97;1.23;;;;;;;;;;6122253;23;20025;-43
2023/08/09 09:55:50;;;;;;;6.10;1.33;;;;;;;;;;6121976;23;20033;-43
2023/08/09 09:58:18;;;;;;;4.95;1.75;;;;;;;;;;6126264;23;20025;-43
2023/08/09 10:00:48;;;;;;;4.53;1.10;;;;;;;;;;6114320;23;20287;-43
2023/08/09 10:03:16;;;;;;;4.75;1.65;;;;;;;;;;6124754;23;20017;-43
2023/08/09 10:05:46;;;;;;;4.00;1.20;;;;;;;;;;6129551;23;20018;-43
2023/08/09 10:08:19;;;;;;;3.85;1.05;;;;;;;;;;6121874;23;20365;-42
2023/08/09 10:10:48;;;;;;;4.50;1.40;;;;;;;;;;6117747;23;20013;-45
2023/08/09 10:13:19;;;;;;;4.25;1.33;;;;;;;;;;6126858;23;20018;-43
2023/08/09 10:15:48;;;;;;;4.47;1.48;;;;;;;;;;6115283;23;20441;-43
2023/08/09 10:18:19;;;;;;;3.83;1.07;;;;;;;;;;6134627;23;20064;-42
2023/08/09 10:20:51;;;;;;;3.95;1.00;;;;;;;;;;6112661;23;20018;-43
2023/08/09 10:23:21;;;;;;;3.85;1.10;;;;;;;;;;6121916;23;20028;-43
2023/08/09 10:25:50;;;;;;;7.20;1.40;;;;;;;;;;6128799;23;20017;-45
2023/08/09 10:28:19;;;;;;;4.45;1.42;;;;;;;;;;6123990;23;20028;-45
2023/08/09 10:30:48;;;;;;;6.93;2.20;;;;;;;;;;6126948;23;20041;-43
2023/08/09 10:33:25;;;;;;;4.18;1.55;;;;;;;;;;6118427;23;20444;-44
2023/08/09 10:35:54;;;;;;;4.72;1.33;;;;;;;;;;6130799;23;20491;-46
2023/08/09 10:38:22;;;;;;;4.45;1.30;;;;;;;;;;6143332;23;20024;-44
2023/08/09 10:40:55;;;;;;;4.88;1.88;;;;;;;;;;6130348;23;20028;-45
2023/08/09 10:43:30;;;;;;;3.97;1.37;;;;;;;;;;6130840;23;20068;-43
2023/08/09 10:45:59;;;;;;;4.10;1.40;;;;;;;;;;6123455;23;20044;-44
2023/08/09 10:48:27;;;;;;;4.85;1.35;;;;;;;;;;6131000;23;20068;-43
2023/08/09 10:51:01;;;;;;;4.10;1.30;;;;;;;;;;6119594;23;20119;-43
2023/08/09 10:53:29;;;;;;;4.65;1.50;;;;;;;;;;6126238;23;20029;-43
2023/08/09 10:55:58;;;;;;;4.13;1.07;;;;;;;;;;6122776;23;20021;-45
2023/08/09 10:58:30;;;;;;;4.53;1.30;;;;;;;;;;6129179;23;20023;-45
2023/08/09 11:00:58;;;;;;;4.82;1.20;;;;;;;;;;6122111;23;20021;-45
2023/08/09 11:03:26;;;;;;;4.25;1.33;;;;;;;;;;6127345;23;20018;-44
2023/08/09 11:05:57;;;;;;;4.15;1.00;;;;;;;;;;6129226;23;20013;-43
2023/08/09 11:08:30;;;;;;;3.53;1.07;;;;;;;;;;6124418;23;20029;-43
2023/08/09 11:10:57;;;;;;;4.28;0.93;;;;;;;;;;6124248;23;20455;-47
2023/08/09 11:13:27;;;;;;;4.45;1.15;;;;;;;;;;6126879;23;20320;-43
2023/08/09 11:15:56;;;;;;;3.33;0.75;;;;;;;;;;6123254;23;20400;-42
2023/08/09 11:18:24;;;;;;;4.05;0.90;;;;;;;;;;6125624;23;20101;-42
2023/08/09 11:20:52;;;;;;;3.90;1.10;;;;;;;;;;6125890;23;20014;-42
2023/08/09 11:23:22;;;;;;;3.70;0.95;;;;;;;;;;6110932;23;20081;-43
2023/08/09 11:25:51;;;;;;;4.43;1.25;;;;;;;;;;6127607;23;20076;-42
2023/08/09 11:28:20;;;;;;;4.40;1.13;;;;;;;;;;6121435;23;20017;-43
2023/08/09 11:30:52;;;;;;;3.55;1.00;;;;;;;;;;6125104;23;20013;-42
2023/08/09 11:33:25;;;;;;;3.90;1.20;;;;;;;;;;6119353;23;20101;-42
2023/08/09 11:35:54;;;;;;;3.80;1.00;;;;;;;;;;6130274;23;20022;-48
2023/08/09 11:38:22;;;;;;;3.50;1.00;;;;;;;;;;6115082;23;20112;-46
2023/08/09 11:40:50;;;;;;;4.20;1.02;;;;;;;;;;6127857;23;20025;-46
2023/08/09 11:43:21;;;;;;;4.10;1.15;;;;;;;;;;6114543;23;20323;-46
2023/08/09 11:45:53;;;;;;;4.33;1.10;;;;;;;;;;6123570;23;20018;-43
2023/08/09 11:48:30;;;;;;;3.05;0.75;;;;;;;;;;6132706;23;20020;-42
2023/08/09 11:50:59;;;;;;;3.30;0.88;;;;;;;;;;6115511;23;20364;-43
2023/08/09 11:53:26;;;;;;;3.10;0.70;;;;;;;;;;6131653;23;20013;-42
2023/08/09 11:55:58;;;;;;;3.28;0.80;;;;;;;;;;6116905;23;20020;-43
2023/08/09 11:58:26;;;;;;;4.87;0.70;;;;;;;;;;6128983;23;20468;-44
2023/08/09 12:00:54;;;;;;;3.80;1.15;;;;;;;;;;6117286;23;20018;-43
2023/08/09 12:03:21;;;;;;;3.67;1.13;;;;;;;;;;6128713;23;20018;-43
2023/08/09 12:05:53;;;;;;;4.10;1.00;;;;;;;;;;6126688;23;20018;-43
2023/08/09 12:08:33;;;;;;;3.67;1.05;;;;;;;;;;6123900;23;20032;-44
2023/08/09 12:11:01;;;;;;;3.80;0.63;;;;;;;;;;6123597;23;20056;-43
2023/08/09 12:13:28;;;;;;;4.22;1.05;;;;;;;;;;6122774;23;20018;-44
2023/08/09 12:15:57;;;;;;;3.50;1.00;;;;;;;;;;6119912;23;20026;-43
2023/08/09 12:18:26;;;;;;;4.32;1.02;;;;;;;;;;6135735;23;20052;-43
2023/08/09 12:20:59;;;;;;;3.60;1.05;;;;;;;;;;6126994;23;20045;-43
2023/08/09 12:23:26;;;;;;;4.13;1.07;;;;;;;;;;6139284;23;20075;-43
2023/08/09 12:25:54;;;;;;;3.42;0.77;;;;;;;;;;6119897;23;20081;-42
2023/08/09 12:28:22;;;;;;;4.65;1.27;;;;;;;;;;6116929;23;20101;-42
2023/08/09 12:30:49;;;;;;;3.45;0.90;;;;;;;;;;6129290;23;20046;-42
2023/08/09 12:33:17;;;;;;;3.35;1.05;;;;;;;;;;6121883;23;20416;-46
2023/08/09 12:35:45;;;;;;;3.80;1.00;;;;;;;;;;6130010;23;20028;-44
2023/08/09 12:38:14;;;;;;;3.78;1.08;;;;;;;;;;6114582;23;20028;-45
2023/08/09 12:40:42;;;;;;;3.63;1.00;;;;;;;;;;6124960;23;20033;-44
2023/08/09 12:43:09;;;;;;;3.75;0.90;;;;;;;;;;6121219;23;20017;-44
2023/08/09 12:45:37;;;;;;;3.50;1.10;;;;;;;;;;6124161;23;20040;-42
2023/08/09 12:48:05;;;;;;;4.53;0.90;;;;;;;;;;6117011;23;20072;-42
2023/08/09 12:50:33;;;;;;;3.70;1.05;;;;;;;;;;6128081;23;20564;-46
2023/08/09 12:53:01;;;;;;;3.80;1.17;;;;;;;;;;6120165;23;20029;-43
2023/08/09 12:55:36;;;;;;;3.45;0.95;;;;;;;;;;6124166;23;20072;-43
2023/08/09 12:58:04;;;;;;;4.55;1.27;;;;;;;;;;6130645;23;20392;-43
2023/08/09 13:00:32;;;;;;;3.27;0.90;;;;;;;;;;6113935;23;20018;-45
2023/08/09 13:03:00;;;;;;;3.45;1.13;;;;;;;;;;6126277;23;20018;-42
2023/08/09 13:05:27;;;;;;;3.97;1.10;;;;;;;;;;6113509;23;20025;-44
2023/08/09 13:07:55;;;;;;;3.63;1.13;;;;;;;;;;6120680;23;20017;-44
2023/08/09 13:10:23;;;;;;;3.15;0.88;;;;;;;;;;6128224;23;20049;-42
2023/08/09 13:12:52;;;;;;;3.60;0.90;;;;;;;;;;6122987;23;20017;-43
2023/08/09 13:15:20;;;;;;;3.15;0.88;;;;;;;;;;6122041;23;20018;-43
2023/08/09 13:17:48;;;;;;;3.00;0.63;;;;;;;;;;6121955;23;20021;-44
2023/08/09 13:20:16;;;;;;;3.40;1.00;;;;;;;;;;6122034;23;20021;-44
2023/08/09 13:22:43;;;;;;;4.03;0.80;;;;;;;;;;6126166;23;20026;-43
2023/08/09 13:25:11;;;;;;;3.80;0.80;;;;;;;;;;6120570;23;20024;-42
2023/08/09 13:27:40;;;;;;;2.97;0.50;;;;;;;;;;6101344;23;20047;-42
2023/08/09 13:30:09;;;;;;;2.97;0.77;;;;;;;;;;6124125;23;20025;-43
2023/08/09 13:32:37;;;;;;;4.00;1.20;;;;;;;;;;6127096;23;20048;-43
2023/08/09 13:35:07;;;;;;;3.40;1.05;;;;;;;;;;6122351;23;20048;-43
2023/08/09 13:37:34;;;;;;;3.30;0.80;;;;;;;;;;6126008;23;20458;-43
2023/08/09 13:40:02;;;;;;;3.83;1.02;;;;;;;;;;6116948;23;20523;-45
2023/08/09 13:42:30;;;;;;;4.28;1.23;;;;;;;;;;6129225;23;20014;-42
2023/08/09 13:44:57;;;;;;;3.55;1.08;;;;;;;;;;6115595;23;20110;-43
2023/08/09 13:47:32;;;;;;;3.40;0.90;;;;;;;;;;6121292;23;20021;-44
2023/08/09 13:50:00;;;;;;;4.33;1.17;;;;;;;;;;6126879;23;20010;-44
2023/08/09 13:52:28;;;;;;;3.85;0.90;;;;;;;;;;6113660;23;20105;-43
2023/08/09 13:54:56;;;;;;;7.82;1.10;;;;;;;;;;6126748;23;20018;-43
2023/08/09 13:57:24;;;;;;;3.40;0.90;;;;;;;;;;6119475;23;20024;-42
2023/08/09 13:59:53;;;;;;;4.18;0.80;;;;;;;;;;6127725;23;20074;-42
2023/08/09 14:02:21;;;;;;;3.27;1.13;;;;;;;;;;6127675;23;20101;-43
2023/08/09 14:05:08;;;;;;;3.78;1.20;;;;;;;;;;6129810;23;20028;-43
2023/08/09 14:07:36;;;;;;;3.92;1.13;;;;;;;;;;6117274;23;20022;-44
2023/08/09 14:10:03;;;;;;;2.95;0.90;;;;;;;;;;6128716;23;20501;-46
2023/08/09 14:12:31;;;;;;;4.05;1.48;;;;;;;;;;6121101;23;20025;-42
2023/08/09 14:15:00;;;;;;;6.13;1.60;;;;;;;;;;6129345;23;20084;-42
2023/08/09 14:17:27;;;;;;;4.22;0.90;;;;;;;;;;6127103;23;20022;-44
2023/08/09 14:19:55;;;;;;;4.10;1.05;;;;;;;;;;6129269;23;20080;-43
2023/08/09 14:22:25;;;;;;;4.43;1.20;;;;;;;;;;6113845;23;20064;-43
2023/08/09 14:24:52;;;;;;;5.05;1.50;;;;;;;;;;6128543;23;20666;-42
2023/08/09 14:27:20;;;;;;;5.07;1.43;;;;;;;;;;6120026;23;20022;-43
2023/08/09 14:29:48;;;;;;;5.38;1.40;;;;;;;;;;6112566;23;20022;-42
2023/08/09 14:32:16;;;;;;;5.28;1.30;;;;;;;;;;6120472;23;20025;-42
2023/08/09 14:34:44;;;;;;;3.25;0.82;;;;;;;;;;6106360;23;20384;-43
2023/08/09 14:37:12;;;;;;;4.00;1.38;;;;;;;;;;6134121;23;20388;-43
2023/08/09 14:39:41;;;;;;;4.77;1.30;;;;;;;;;;6107622;23;20338;-45
2023/08/09 14:42:09;;;;;;;4.10;1.00;;;;;;;;;;6098903;23;20470;-45
2023/08/09 14:44:36;;;;;;;4.32;1.52;;;;;;;;;;6102754;23;20513;-43
2023/08/09 14:47:05;;;;;;;3.72;1.23;;;;;;;;;;6112138;23;20504;-43